createdAt,value
2023-01-23T00:09:08.560Z,102281.28
2023-01-23T00:19:10.905Z,102273.72
2023-01-23T00:29:15.474Z,102280.44
2023-01-23T00:39:19.614Z,102286.19
2023-01-23T00:49:24.556Z,102284.13
2023-01-23T00:59:27.012Z,102285.41
2023-01-23T01:09:29.122Z,102299.44
2023-01-23T01:19:31.433Z,102306.44
2023-01-23T01:29:33.921Z,102307.41
2023-01-23T01:39:36.266Z,102315.44
2023-01-23T01:49:38.390Z,102302.44
2023-01-23T01:59:48.381Z,102318.25
2023-01-23T02:09:50.724Z,102320.06
2023-01-23T02:20:17.724Z,102322.19
2023-01-23T02:30:21.508Z,102326.13
2023-01-23T02:40:41.102Z,102332.91
2023-01-23T02:50:46.594Z,102329.78
2023-01-23T03:00:48.887Z,102336.22
2023-01-23T03:10:51.266Z,102323.84
2023-01-23T03:20:53.944Z,102332.06
2023-01-23T03:30:59.148Z,102336.31
2023-01-23T03:41:20.186Z,102335.72
2023-01-23T03:51:22.907Z,102332.56
2023-01-23T04:01:26.142Z,102339.94
2023-01-23T04:11:28.799Z,102346.50
2023-01-23T04:21:31.334Z,102365.13
2023-01-23T04:31:34.126Z,102372.41
2023-01-23T04:41:36.870Z,102361.78
2023-01-23T04:51:48.250Z,102359.59
2023-01-23T05:01:51.970Z,102352.34
2023-01-23T05:11:54.258Z,102351.91
2023-01-23T05:21:59.253Z,102343.38
2023-01-23T05:32:01.987Z,102357.09
2023-01-23T05:42:13.311Z,102364.09
2023-01-23T05:52:35.610Z,102390.75
2023-01-23T06:02:38.950Z,102385.06
2023-01-23T06:13:16.768Z,102392.75
2023-01-23T06:23:19.191Z,102397.69
2023-01-23T06:33:21.420Z,102410.25
2023-01-23T06:43:25.776Z,102430.78
2023-01-23T06:53:29.636Z,102446.41
2023-01-23T07:03:32.396Z,102451.97
2023-01-23T07:13:34.822Z,102450.84
2023-01-23T07:23:37.344Z,102465.63
2023-01-23T07:33:39.527Z,102496.13
2023-01-23T07:43:41.699Z,102497.19
2023-01-23T07:53:43.877Z,102499.97
2023-01-23T08:03:46.971Z,102506.34
2023-01-23T08:13:50.213Z,102510.53
2023-01-23T08:23:52.404Z,102512.66
2023-01-23T08:33:55.411Z,102510.84
2023-01-23T08:44:01.781Z,102510.13
2023-01-23T08:54:04.157Z,102517.66
2023-01-23T09:04:06.427Z,102531.34
2023-01-23T09:14:08.692Z,102531.91
2023-01-23T09:24:10.788Z,102535.66
2023-01-23T09:34:13.147Z,102531.03
2023-01-23T09:44:35.883Z,102541.63
2023-01-23T09:54:48.331Z,102549.66
2023-01-23T10:04:52.441Z,102547.09
2023-01-23T10:15:11.522Z,102560.47
2023-01-23T10:25:20.971Z,102559.19
2023-01-23T10:35:39.475Z,102567.31
2023-01-23T10:45:42.385Z,102566.19
2023-01-23T10:55:45.965Z,102563.69
2023-01-23T11:05:53.469Z,102549.22
2023-01-23T11:15:55.908Z,102527.78
2023-01-23T11:25:59.411Z,102527.09
2023-01-23T11:36:28.695Z,102513.31
2023-01-23T11:46:43.992Z,102528.81
2023-01-23T11:56:56.439Z,102520.28
2023-01-23T12:07:21.425Z,102519.91
2023-01-23T12:17:49.050Z,102506.03
2023-01-23T12:28:00.751Z,102514.22
2023-01-23T12:38:19.461Z,102519.72
2023-01-23T12:48:32.821Z,102527.97
2023-01-23T12:58:38.121Z,102525.06
2023-01-23T13:09:02.624Z,102520.66
2023-01-23T13:19:41.821Z,102526.88
2023-01-23T13:29:49.808Z,102524.69
2023-01-23T13:40:13.648Z,102533.25
2023-01-23T14:21:56.965Z,102551.16
2023-01-23T14:32:00.300Z,102542.09
2023-01-23T14:42:04.497Z,102552.19
2023-01-23T14:52:18.350Z,102561.94
2023-01-23T15:02:26.375Z,102554.34
2023-01-23T15:12:28.741Z,102565.00
2023-01-23T15:22:32.665Z,102555.75
2023-01-23T15:32:35.718Z,102561.41
2023-01-23T15:42:39.702Z,102557.19
2023-01-23T15:52:48.528Z,102573.66
2023-01-23T16:02:56.663Z,102565.78
2023-01-23T16:12:59.758Z,102558.94
2023-01-23T16:23:14.556Z,102545.91
2023-01-23T16:33:17.047Z,102543.78
2023-01-23T16:43:20.387Z,102522.22
2023-01-23T16:53:29.609Z,102543.75
2023-01-23T17:03:34.456Z,102540.50
2023-01-23T17:13:36.948Z,102544.38
2023-01-23T17:23:39.076Z,102551.00
2023-01-23T17:33:41.309Z,102548.00
2023-01-23T17:43:44.698Z,102551.41
2023-01-23T17:53:47.228Z,102547.78
2023-01-23T18:03:50.533Z,102534.19
2023-01-23T18:14:15.188Z,102550.16
2023-01-23T18:24:25.339Z,102544.94
2023-01-23T18:34:50.549Z,102538.97
2023-01-23T18:44:56.784Z,102547.69
2023-01-23T18:55:14.396Z,102554.50
2023-01-23T19:05:31.336Z,102556.03
2023-01-23T19:16:08.385Z,102572.59
2023-01-23T19:26:14.570Z,102582.84
2023-01-23T19:36:17.217Z,102589.78
2023-01-23T19:46:21.312Z,102597.75
2023-01-23T19:56:24.730Z,102609.41
2023-01-23T20:06:27.510Z,102607.63
2023-01-23T20:16:29.827Z,102612.50
2023-01-23T20:26:31.984Z,102625.22
2023-01-23T20:36:34.114Z,102611.59
2023-01-23T20:46:36.299Z,102632.53
2023-01-23T20:56:39.043Z,102611.22
2023-01-23T21:06:41.173Z,102625.97
2023-01-23T21:16:43.568Z,102604.63
2023-01-23T21:26:45.914Z,102603.56
2023-01-23T21:36:48.179Z,102609.59
2023-01-23T21:46:51.593Z,102615.09
2023-01-23T21:56:53.736Z,102612.75
2023-01-23T22:06:58.675Z,102624.03
2023-01-23T22:17:01.008Z,102608.06
2023-01-23T22:27:04.124Z,102603.13
2023-01-23T22:37:06.335Z,102602.22
2023-01-23T22:47:08.809Z,102609.69
2023-01-23T22:57:11.197Z,102599.78
2023-01-23T23:07:13.610Z,102616.28
2023-01-23T23:17:15.899Z,102608.97
2023-01-23T23:27:18.216Z,102603.25
2023-01-23T23:37:20.341Z,102598.19
2023-01-23T23:47:22.466Z,102610.72
2023-01-23T23:57:24.730Z,102621.66
